createdAt,value
2022-08-23T00:01:59.347Z,19.70
2022-08-23T00:04:35.054Z,19.70
2022-08-23T00:07:06.326Z,19.70
2022-08-23T00:09:33.027Z,19.60
2022-08-23T00:12:20.423Z,19.60
2022-08-23T00:14:51.454Z,19.60
2022-08-23T00:17:34.065Z,19.60
2022-08-23T00:20:07.408Z,19.50
2022-08-23T00:22:34.034Z,19.50
2022-08-23T00:25:03.785Z,19.50
2022-08-23T00:27:33.667Z,19.50
2022-08-23T00:30:00.951Z,19.50
2022-08-23T00:32:36.781Z,19.40
2022-08-23T00:35:12.624Z,19.40
2022-08-23T00:38:05.922Z,19.30
2022-08-23T00:40:36.278Z,19.30
2022-08-23T00:43:29.767Z,19.30
2022-08-23T00:46:31.639Z,19.30
2022-08-23T00:49:03.424Z,19.20
2022-08-23T00:51:43.037Z,19.10
2022-08-23T00:54:21.501Z,19.10
2022-08-23T00:56:49.721Z,19.00
2022-08-23T00:59:17.717Z,19.00
2022-08-23T01:01:44.803Z,19.00
2022-08-23T01:04:13.234Z,19.00
2022-08-23T01:06:49.978Z,19.00
2022-08-23T01:09:20.345Z,18.90
2022-08-23T01:12:03.226Z,18.90
2022-08-23T01:14:37.778Z,18.90
2022-08-23T01:17:12.094Z,18.80
2022-08-23T01:19:43.755Z,18.80
2022-08-23T01:22:19.096Z,18.70
2022-08-23T01:30:33.784Z,18.70
2022-08-23T01:33:05.297Z,18.80
2022-08-23T01:35:54.896Z,18.70
2022-08-23T01:38:25.967Z,18.70
2022-08-23T01:40:55.331Z,18.70
2022-08-23T01:43:22.915Z,18.70
2022-08-23T01:45:53.422Z,18.60
2022-08-23T01:48:26.604Z,18.50
2022-08-23T01:50:53.477Z,18.50
2022-08-23T01:53:20.623Z,18.30
2022-08-23T01:55:49.816Z,18.20
2022-08-23T01:58:21.528Z,18.10
2022-08-23T02:00:48.666Z,17.90
2022-08-23T02:03:16.380Z,17.80
2022-08-23T02:05:44.999Z,17.70
2022-08-23T02:08:32.744Z,17.60
2022-08-23T02:11:11.195Z,17.50
2022-08-23T02:13:46.869Z,17.40
2022-08-23T02:16:29.124Z,17.40
2022-08-23T02:18:56.867Z,17.30
2022-08-23T02:21:25.804Z,17.30
2022-08-23T02:23:52.475Z,17.40
2022-08-23T02:26:30.836Z,17.40
2022-08-23T02:29:08.677Z,17.50
2022-08-23T02:31:35.821Z,17.50
2022-08-23T02:34:11.339Z,17.50
2022-08-23T02:36:39.217Z,17.60
2022-08-23T02:39:07.288Z,17.60
2022-08-23T02:41:34.921Z,17.60
2022-08-23T02:44:04.489Z,17.50
2022-08-23T02:46:31.382Z,17.50
2022-08-23T02:49:03.596Z,17.50
2022-08-23T02:51:30.380Z,17.50
2022-08-23T02:53:58.288Z,17.40
2022-08-23T02:56:37.545Z,17.30
2022-08-23T02:59:08.117Z,17.30
2022-08-23T03:01:41.614Z,17.30
2022-08-23T03:04:20.662Z,17.30
2022-08-23T03:06:47.527Z,17.30
2022-08-23T03:09:14.524Z,17.30
2022-08-23T03:11:49.186Z,17.30
2022-08-23T03:14:17.240Z,17.30
2022-08-23T03:16:44.538Z,17.30
2022-08-23T03:19:12.305Z,17.30
2022-08-23T03:21:43.333Z,17.30
2022-08-23T03:24:14.783Z,17.30
2022-08-23T03:26:43.727Z,17.20
2022-08-23T03:29:10.944Z,17.10
2022-08-23T03:32:05.320Z,17.10
2022-08-23T03:34:44.036Z,17.00
2022-08-23T03:37:10.744Z,16.90
2022-08-23T03:39:40.098Z,16.80
2022-08-23T03:42:11.320Z,16.80
2022-08-23T03:44:51.588Z,16.80
2022-08-23T03:47:30.203Z,16.70
2022-08-23T03:50:04.447Z,16.70
2022-08-23T03:52:32.918Z,16.70
2022-08-23T03:55:00.223Z,16.70
2022-08-23T03:57:33.854Z,16.70
2022-08-23T04:00:03.712Z,16.70
2022-08-23T04:02:41.075Z,16.70
2022-08-23T04:05:10.639Z,16.70
2022-08-23T04:07:48.766Z,16.60
2022-08-23T04:10:15.530Z,16.60
2022-08-23T04:12:43.871Z,16.50
2022-08-23T04:15:15.795Z,16.60
2022-08-23T04:17:42.525Z,16.60
2022-08-23T04:20:10.299Z,16.50
2022-08-23T04:22:51.893Z,16.50
2022-08-23T04:25:33.539Z,16.40
2022-08-23T04:28:02.882Z,16.30
2022-08-23T04:30:33.121Z,16.20
2022-08-23T04:33:09.908Z,16.10
2022-08-23T04:35:40.974Z,16.00
2022-08-23T04:38:24.777Z,16.00
2022-08-23T04:41:16.410Z,16.00
2022-08-23T04:43:48.752Z,16.00
2022-08-23T04:46:16.232Z,15.90
2022-08-23T04:48:46.464Z,16.00
2022-08-23T04:51:14.437Z,16.00
2022-08-23T04:53:42.021Z,16.10
2022-08-23T04:56:27.724Z,16.10
2022-08-23T04:58:54.510Z,16.20
2022-08-23T05:01:29.196Z,16.20
2022-08-23T05:03:58.175Z,16.30
2022-08-23T05:06:30.556Z,16.30
2022-08-23T05:08:57.872Z,16.40
2022-08-23T05:11:35.322Z,16.40
2022-08-23T05:14:02.453Z,16.50
2022-08-23T05:16:29.912Z,16.50
2022-08-23T05:19:17.423Z,16.50
2022-08-23T05:21:46.757Z,16.50
2022-08-23T05:24:16.519Z,16.50
2022-08-23T05:26:48.431Z,16.40
2022-08-23T05:29:23.408Z,16.40
2022-08-23T05:32:18.612Z,16.40
2022-08-23T05:34:45.455Z,16.40
2022-08-23T05:37:13.113Z,16.40
2022-08-23T05:40:32.472Z,16.40
2022-08-23T05:43:12.722Z,16.50
2022-08-23T05:45:41.828Z,16.60
2022-08-23T05:48:10.860Z,16.60
2022-08-23T05:50:47.983Z,16.60
2022-08-23T05:53:17.631Z,16.70
2022-08-23T05:55:46.421Z,16.70
2022-08-23T05:58:18.006Z,16.70
2022-08-23T06:00:49.409Z,16.70
2022-08-23T06:03:18.993Z,16.80
2022-08-23T06:05:49.218Z,16.90
2022-08-23T06:08:15.904Z,16.90
2022-08-23T06:10:45.906Z,17.00
2022-08-23T06:13:38.142Z,17.00
2022-08-23T06:16:14.231Z,17.10
2022-08-23T06:24:49.552Z,17.50
2022-08-23T06:27:19.691Z,17.60
2022-08-23T06:29:48.325Z,17.70
2022-08-23T06:32:45.588Z,17.80
2022-08-23T06:35:50.133Z,17.90
2022-08-23T06:38:24.809Z,18.00
2022-08-23T06:41:05.898Z,18.20
2022-08-23T06:43:42.357Z,18.30
2022-08-23T06:46:23.541Z,18.40
2022-08-23T06:48:52.653Z,18.60
2022-08-23T06:51:26.637Z,18.80
2022-08-23T06:54:13.832Z,18.90
2022-08-23T06:56:47.524Z,19.00
2022-08-23T06:59:20.681Z,19.20
2022-08-23T07:02:20.994Z,19.30
2022-08-23T07:05:06.666Z,19.50
2022-08-23T07:07:37.679Z,19.70
2022-08-23T07:10:09.586Z,20.00
2022-08-23T07:13:02.492Z,20.10
2022-08-23T07:15:29.606Z,20.20
2022-08-23T07:17:56.287Z,20.30
2022-08-23T07:20:23.786Z,20.50
2022-08-23T07:22:52.958Z,20.60
2022-08-23T07:25:19.826Z,20.80
2022-08-23T07:27:53.685Z,20.90
2022-08-23T07:30:21.720Z,21.00
2022-08-23T07:32:53.577Z,21.20
2022-08-23T07:35:28.232Z,21.40
2022-08-23T07:37:57.707Z,21.50
2022-08-23T07:40:39.012Z,21.70
2022-08-23T07:43:10.838Z,21.90
2022-08-23T07:45:42.589Z,22.10
2022-08-23T07:48:11.440Z,22.30
2022-08-23T07:51:09.876Z,22.40
2022-08-23T07:53:39.755Z,22.60
2022-08-23T07:56:12.417Z,22.80
2022-08-23T07:58:58.129Z,22.90
2022-08-23T08:01:40.450Z,23.10
2022-08-23T08:04:07.613Z,23.30
2022-08-23T08:06:40.420Z,23.40
2022-08-23T08:09:09.792Z,23.60
2022-08-23T08:11:46.581Z,23.80
2022-08-23T08:14:18.575Z,24.00
2022-08-23T08:16:55.514Z,24.20
2022-08-23T08:19:48.023Z,24.30
2022-08-23T08:22:49.210Z,24.50
2022-08-23T08:25:26.881Z,24.70
2022-08-23T08:28:02.465Z,24.90
2022-08-23T08:30:36.639Z,25.10
2022-08-23T08:33:04.725Z,25.40
2022-08-23T08:35:36.610Z,25.60
2022-08-23T08:38:06.357Z,25.80
2022-08-23T08:40:39.457Z,26.00
2022-08-23T08:43:45.182Z,26.20
2022-08-23T08:46:34.072Z,26.40
2022-08-23T08:49:09.425Z,26.50
2022-08-23T08:51:55.564Z,26.60
2022-08-23T08:54:25.534Z,26.60
2022-08-23T08:57:00.574Z,26.60
2022-08-23T09:00:01.244Z,26.70
2022-08-23T09:02:34.384Z,26.90
2022-08-23T09:05:13.978Z,27.00
2022-08-23T09:08:11.765Z,27.00
2022-08-23T09:10:53.138Z,27.00
2022-08-23T09:13:46.251Z,27.30
2022-08-23T09:16:45.885Z,27.70
2022-08-23T09:19:15.767Z,28.10
2022-08-23T09:22:12.937Z,28.30
2022-08-23T09:24:43.100Z,28.60
2022-08-23T09:27:23.588Z,28.80
2022-08-23T09:29:58.118Z,29.20
2022-08-23T09:32:38.396Z,29.50
2022-08-23T09:35:18.804Z,29.60
2022-08-23T09:37:56.995Z,29.70
2022-08-23T09:40:38.945Z,29.80
2022-08-23T09:43:14.236Z,30.00
2022-08-23T09:45:47.770Z,29.80
2022-08-23T09:48:32.894Z,29.80
2022-08-23T09:51:25.219Z,29.60
2022-08-23T09:54:09.085Z,29.30
2022-08-23T09:56:44.382Z,29.20
2022-08-23T09:59:43.499Z,29.30
2022-08-23T10:02:36.103Z,29.70
2022-08-23T10:05:40.628Z,30.30
2022-08-23T10:08:32.489Z,30.60
2022-08-23T10:11:17.139Z,30.70
2022-08-23T10:13:44.284Z,30.90
2022-08-23T10:16:17.889Z,31.20
2022-08-23T10:19:02.697Z,31.60
2022-08-23T10:21:47.654Z,31.50
2022-08-23T10:24:20.669Z,31.90
2022-08-23T10:26:59.447Z,32.20
2022-08-23T10:29:40.323Z,32.20
2022-08-23T10:32:11.813Z,32.40
2022-08-23T10:35:07.459Z,32.60
2022-08-23T10:38:05.242Z,32.20
2022-08-23T10:40:35.508Z,32.40
2022-08-23T10:43:40.214Z,32.10
2022-08-23T10:46:08.501Z,32.00
2022-08-23T10:48:51.417Z,32.40
2022-08-23T11:06:23.744Z,33.90
2022-08-23T11:09:18.246Z,34.30
2022-08-23T11:12:10.956Z,34.70
2022-08-23T11:14:57.275Z,34.80
2022-08-23T11:17:34.129Z,34.60
2022-08-23T11:20:11.589Z,34.80
2022-08-23T11:23:35.867Z,34.80
2022-08-23T11:26:30.590Z,35.20
2022-08-23T11:29:07.779Z,35.20
2022-08-23T11:31:54.478Z,35.00
2022-08-23T11:34:31.520Z,35.00
2022-08-23T11:37:19.754Z,35.20
2022-08-23T11:39:57.264Z,35.20
2022-08-23T11:42:37.024Z,35.40
2022-08-23T11:45:23.114Z,35.50
2022-08-23T11:48:13.088Z,35.80
2022-08-23T11:50:59.456Z,36.10
2022-08-23T11:53:48.510Z,36.30
2022-08-23T11:56:21.352Z,36.00
2022-08-23T11:59:13.045Z,36.00
2022-08-23T12:01:44.957Z,36.30
2022-08-23T12:04:25.872Z,36.10
2022-08-23T12:07:00.869Z,36.20
2022-08-23T12:09:30.066Z,36.30
2022-08-23T12:11:56.678Z,36.60
2022-08-23T12:14:44.683Z,36.50
2022-08-23T12:17:17.671Z,36.80
2022-08-23T12:19:53.429Z,37.00
2022-08-23T12:22:24.196Z,37.30
2022-08-23T12:24:56.502Z,37.00
2022-08-23T12:27:45.317Z,37.00
2022-08-23T12:30:20.377Z,36.50
2022-08-23T12:33:10.501Z,36.20
2022-08-23T12:35:42.908Z,36.40
2022-08-23T12:38:15.590Z,36.50
2022-08-23T12:40:50.390Z,36.40
2022-08-23T12:43:35.948Z,36.40
2022-08-23T12:48:45.904Z,36.90
2022-08-23T12:51:13.310Z,36.80
2022-08-23T12:53:45.058Z,36.90
2022-08-23T12:56:44.762Z,36.70
2022-08-23T12:59:45.752Z,36.70
2022-08-23T13:03:14.035Z,36.90
2022-08-23T13:05:55.177Z,36.90
2022-08-23T13:08:44.001Z,36.60
2022-08-23T13:11:14.102Z,36.40
2022-08-23T13:13:45.170Z,36.20
2022-08-23T13:16:37.230Z,35.80
2022-08-23T13:19:31.338Z,35.90
2022-08-23T13:22:17.123Z,36.20
2022-08-23T13:27:56.594Z,37.10
2022-08-23T13:30:32.961Z,37.30
2022-08-23T13:33:08.654Z,37.40
2022-08-23T13:35:38.680Z,37.70
2022-08-23T13:38:18.325Z,37.80
2022-08-23T13:41:08.063Z,37.90
2022-08-23T13:43:37.528Z,38.20
2022-08-23T13:46:22.903Z,38.20
2022-08-23T13:49:13.039Z,38.20
2022-08-23T13:52:45.914Z,38.10
2022-08-23T13:54:53.236Z,37.90
2022-08-23T13:57:29.563Z,37.50
2022-08-23T13:59:59.011Z,36.70
2022-08-23T14:02:25.907Z,36.20
2022-08-23T14:04:52.908Z,36.00
2022-08-23T14:07:22.162Z,36.00
2022-08-23T14:09:54.992Z,36.40
2022-08-23T14:12:27.944Z,36.80
2022-08-23T14:14:58.386Z,37.00
2022-08-23T14:17:26.374Z,36.70
2022-08-23T14:23:48.617Z,36.80
2022-08-23T14:26:17.667Z,36.80
2022-08-23T14:28:50.179Z,36.70
2022-08-23T14:31:21.377Z,36.70
2022-08-23T14:34:02.148Z,36.80
2022-08-23T14:36:33.581Z,36.90
2022-08-23T14:39:02.454Z,37.00
2022-08-23T14:41:30.487Z,36.90
2022-08-23T14:44:00.982Z,37.00
2022-08-23T14:49:23.260Z,36.90
2022-08-23T14:51:50.387Z,36.30
2022-08-23T14:54:22.146Z,36.20
2022-08-23T14:56:51.483Z,36.10
2022-08-23T14:59:21.326Z,36.10
2022-08-23T15:01:53.982Z,36.10
2022-08-23T15:04:22.906Z,35.80
2022-08-23T15:07:14.387Z,35.40
2022-08-23T15:09:38.339Z,35.30
2022-08-23T15:14:57.185Z,35.40
2022-08-23T15:17:31.744Z,35.50
2022-08-23T15:20:02.263Z,35.50
2022-08-23T15:22:29.009Z,35.40
2022-08-23T15:25:04.908Z,35.50
2022-08-23T15:27:32.281Z,35.50
2022-08-23T15:30:01.004Z,35.60
2022-08-23T15:32:27.735Z,35.70
2022-08-23T15:34:57.130Z,35.60
2022-08-23T15:37:24.839Z,35.50
2022-08-23T15:39:54.413Z,35.30
2022-08-23T15:42:21.125Z,35.30
2022-08-23T15:44:48.960Z,35.10
2022-08-23T15:47:30.321Z,34.90
2022-08-23T15:49:58.445Z,34.40
2022-08-23T15:52:27.477Z,34.30
2022-08-23T15:54:54.463Z,34.00
2022-08-23T15:57:27.976Z,33.70
2022-08-23T15:59:59.923Z,33.60
2022-08-23T16:02:26.610Z,33.30
2022-08-23T16:04:53.288Z,33.20
2022-08-23T16:07:20.819Z,33.10
2022-08-23T16:09:47.642Z,32.90
2022-08-23T16:12:18.631Z,32.80
2022-08-23T16:14:45.318Z,32.70
2022-08-23T16:17:14.341Z,32.60
2022-08-23T16:19:44.265Z,32.40
2022-08-23T16:22:11.398Z,32.20
2022-08-23T16:24:43.273Z,32.10
2022-08-23T16:27:10.305Z,32.00
2022-08-23T16:29:40.354Z,31.90
2022-08-23T16:32:08.137Z,31.80
2022-08-23T16:34:35.323Z,31.80
2022-08-23T16:37:08.982Z,31.60
2022-08-23T16:39:36.438Z,31.60
2022-08-23T16:42:05.229Z,31.60
2022-08-23T16:44:33.623Z,31.60
2022-08-23T16:47:09.059Z,31.60
2022-08-23T16:49:36.602Z,31.50
2022-08-23T16:52:03.819Z,31.40
2022-08-23T16:54:30.787Z,31.30
2022-08-23T16:56:57.456Z,31.30
2022-08-23T17:10:43.397Z,30.90
2022-08-23T17:13:16.582Z,30.80
2022-08-23T17:15:43.389Z,30.70
2022-08-23T17:18:10.280Z,30.60
2022-08-23T17:20:38.557Z,30.60
2022-08-23T17:23:08.964Z,30.50
2022-08-23T17:25:36.782Z,30.40
2022-08-23T17:28:05.445Z,30.40
2022-08-23T17:30:34.883Z,30.30
2022-08-23T17:33:04.514Z,30.30
2022-08-23T17:35:36.771Z,30.20
2022-08-23T17:38:12.016Z,30.20
2022-08-23T17:40:41.400Z,30.10
2022-08-23T17:43:11.956Z,30.00
2022-08-23T17:45:47.486Z,29.90
2022-08-23T17:48:18.354Z,29.90
2022-08-23T17:50:48.147Z,29.80
2022-08-23T17:53:18.004Z,29.80
2022-08-23T17:55:50.326Z,29.70
2022-08-23T17:58:20.572Z,29.60
2022-08-23T18:00:51.882Z,29.50
2022-08-23T18:03:30.438Z,29.40
2022-08-23T18:05:59.843Z,29.40
2022-08-23T18:08:26.546Z,29.30
2022-08-23T18:10:55.667Z,29.20
2022-08-23T18:13:30.166Z,29.00
2022-08-23T18:15:58.150Z,28.80
2022-08-23T18:18:31.632Z,28.60
2022-08-23T18:21:02.770Z,28.40
2022-08-23T18:23:29.456Z,28.20
2022-08-23T18:26:05.376Z,27.90
2022-08-23T18:29:03.459Z,27.70
2022-08-23T18:31:33.140Z,27.60
2022-08-23T18:34:00.737Z,27.40
2022-08-23T18:36:29.240Z,27.30
2022-08-23T18:38:56.756Z,27.10
2022-08-23T18:41:32.102Z,26.80
2022-08-23T18:44:08.506Z,26.70
2022-08-23T18:46:39.929Z,26.50
2022-08-23T18:49:08.440Z,26.30
2022-08-23T18:51:38.565Z,26.10
2022-08-23T18:54:05.669Z,25.90
2022-08-23T18:56:36.372Z,25.80
2022-08-23T18:59:03.510Z,25.60
2022-08-23T19:01:40.694Z,25.50
2022-08-23T19:04:09.165Z,25.20
2022-08-23T19:06:36.214Z,25.10
2022-08-23T19:09:16.153Z,25.00
2022-08-23T19:11:49.674Z,24.80
2022-08-23T19:14:18.673Z,24.70
2022-08-23T19:16:48.460Z,24.60
2022-08-23T19:19:16.191Z,24.50
2022-08-23T19:21:44.101Z,24.30
2022-08-23T19:24:16.442Z,24.10
2022-08-23T19:27:09.526Z,24.00
2022-08-23T19:29:42.532Z,23.80
2022-08-23T19:32:13.281Z,23.70
2022-08-23T19:34:54.132Z,23.50
2022-08-23T19:37:23.343Z,23.40
2022-08-23T19:39:50.114Z,23.40
2022-08-23T19:42:17.842Z,23.30
2022-08-23T19:44:50.652Z,23.20
2022-08-23T19:47:19.784Z,23.00
2022-08-23T19:49:51.706Z,22.90
2022-08-23T19:52:18.457Z,22.80
2022-08-23T19:54:45.145Z,22.60
2022-08-23T19:57:12.013Z,22.60
2022-08-23T19:59:41.633Z,22.50
2022-08-23T20:02:13.209Z,22.30
2022-08-23T20:04:43.238Z,22.20
2022-08-23T20:07:14.355Z,22.10
2022-08-23T20:09:43.219Z,22.00
2022-08-23T20:12:14.946Z,22.00
2022-08-23T20:14:42.673Z,22.00
2022-08-23T20:17:10.822Z,21.90
2022-08-23T20:19:40.329Z,21.90
2022-08-23T20:22:29.622Z,21.90
2022-08-23T20:24:57.276Z,21.90
2022-08-23T20:27:30.881Z,22.00
2022-08-23T20:29:59.550Z,22.00
2022-08-23T20:32:27.698Z,22.00
2022-08-23T20:34:57.243Z,22.10
2022-08-23T20:37:24.801Z,22.10
2022-08-23T20:39:51.816Z,22.10
2022-08-23T20:42:19.700Z,22.00
2022-08-23T20:44:48.452Z,21.80
2022-08-23T20:47:15.326Z,21.80
2022-08-23T20:49:50.532Z,21.80
2022-08-23T20:52:17.610Z,21.80
2022-08-23T20:54:46.660Z,21.60
2022-08-23T20:57:13.583Z,21.40
2022-08-23T20:59:45.398Z,21.30
2022-08-23T21:02:12.443Z,21.20
2022-08-23T21:04:40.271Z,21.10
2022-08-23T21:07:07.764Z,20.90
2022-08-23T21:09:34.504Z,20.80
2022-08-23T21:12:01.755Z,20.70
2022-08-23T21:14:28.610Z,20.50
2022-08-23T21:16:55.727Z,20.50
2022-08-23T21:19:25.885Z,20.40
2022-08-23T21:21:52.932Z,20.50
2022-08-23T21:24:19.707Z,20.50
2022-08-23T21:26:50.649Z,20.50
2022-08-23T21:29:17.376Z,20.50
2022-08-23T21:31:44.167Z,20.30
2022-08-23T21:34:13.650Z,20.40
2022-08-23T21:36:40.493Z,20.30
2022-08-23T21:39:07.764Z,20.30
2022-08-23T21:41:41.484Z,20.30
2022-08-23T21:44:13.043Z,20.40
2022-08-23T21:46:42.487Z,20.40
2022-08-23T21:49:15.334Z,20.40
2022-08-23T21:51:47.594Z,20.50
2022-08-23T21:54:17.332Z,20.50
2022-08-23T21:56:49.664Z,20.50
2022-08-23T21:59:17.433Z,20.40
2022-08-23T22:01:47.474Z,20.20
2022-08-23T22:04:15.171Z,20.10
2022-08-23T22:06:46.952Z,19.90
2022-08-23T22:09:19.677Z,19.80
2022-08-23T22:11:55.122Z,19.70
2022-08-23T22:14:24.199Z,19.70
2022-08-23T22:16:55.187Z,19.70
2022-08-23T22:19:22.820Z,19.60
2022-08-23T22:21:52.392Z,19.50
2022-08-23T22:24:25.273Z,19.50
2022-08-23T22:26:55.386Z,19.50
2022-08-23T22:29:22.759Z,19.50
2022-08-23T22:31:50.923Z,19.40
2022-08-23T22:34:17.969Z,19.30
2022-08-23T22:36:44.685Z,19.20
2022-08-23T22:39:22.171Z,19.10
2022-08-23T22:41:49.656Z,19.00
2022-08-23T22:44:18.758Z,18.90
2022-08-23T22:46:49.706Z,18.90
2022-08-23T22:49:16.459Z,18.90
2022-08-23T22:51:43.750Z,18.90
2022-08-23T22:54:11.047Z,18.80
2022-08-23T22:56:46.888Z,18.80
2022-08-23T22:59:17.718Z,18.70
2022-08-23T23:01:51.616Z,18.60
2022-08-23T23:04:26.513Z,18.50
2022-08-23T23:06:54.355Z,18.30
2022-08-23T23:09:21.451Z,18.30
2022-08-23T23:11:49.339Z,18.20
2022-08-23T23:14:20.588Z,18.20
2022-08-23T23:16:52.395Z,18.20
2022-08-23T23:19:38.155Z,18.30
2022-08-23T23:22:07.289Z,18.30
2022-08-23T23:24:37.388Z,18.20
2022-08-23T23:27:05.040Z,18.30
2022-08-23T23:29:34.589Z,18.30
2022-08-23T23:32:01.459Z,18.30
2022-08-23T23:34:30.938Z,18.30
2022-08-23T23:36:58.680Z,18.30
2022-08-23T23:39:27.305Z,18.30
2022-08-23T23:41:57.801Z,18.20
2022-08-23T23:44:32.321Z,18.20
2022-08-23T23:47:07.571Z,18.10
2022-08-23T23:49:34.386Z,18.10
2022-08-23T23:52:03.455Z,18.00
2022-08-23T23:54:34.898Z,18.00
2022-08-23T23:57:03.387Z,17.90
2022-08-23T23:59:34.201Z,17.90
